Time;durP1;ratioP1;P1;durP2;ratioP2;P2;SDS_P1;SDS_P2;PMS_P1;PMS_P2;Temp;Humidity;BMP_temperature;BMP_pressure;BME280_temperature;BME280_humidity;BME280_pressure;Samples;Min_cycle;Max_cycle;Signal;HPM_P1;HPM_P2
2022/03/24 00:03:07;;;;;;;67.20;34.40;;;;;;;4.31;39.88;99601.69;221128;1270;24363;-68
2022/03/24 00:08:10;;;;;;;67.30;33.10;;;;;;;4.24;40.19;99598.32;220992;1270;24176;-68
2022/03/24 00:13:12;;;;;;;61.80;30.70;;;;;;;4.14;40.53;99600.73;220948;1270;22628;-68
2022/03/24 00:18:17;;;;;;;59.40;30.30;;;;;;;4.04;40.66;99598.96;220975;1270;25410;-68
2022/03/24 00:23:20;;;;;;;57.40;29.20;;;;;;;3.95;40.70;99597.11;221032;1271;22555;-68
2022/03/24 00:28:24;;;;;;;55.90;28.30;;;;;;;3.86;40.81;99589.08;221159;1271;24272;-68
2022/03/24 00:33:27;;;;;;;54.50;28.20;;;;;;;3.80;40.95;99581.73;221084;1270;25396;-68
2022/03/24 00:38:32;;;;;;;53.10;25.50;;;;;;;3.72;41.18;99579.96;221218;1271;22561;-68
2022/03/24 00:43:35;;;;;;;43.50;23.10;;;;;;;3.71;41.39;99582.51;220945;1270;22599;-68
2022/03/24 00:48:37;;;;;;;45.00;23.90;;;;;;;3.78;41.29;99580.99;221191;1270;22542;-69
2022/03/24 00:53:40;;;;;;;49.10;23.80;;;;;;;3.79;41.40;99581.62;220927;1270;22658;-68
2022/03/24 00:58:42;;;;;;;47.10;24.70;;;;;;;3.76;41.46;99582.49;220919;1270;22550;-68
2022/03/24 01:03:45;;;;;;;45.90;24.80;;;;;;;3.82;41.86;99583.63;220987;1271;22671;-69
2022/03/24 01:08:47;;;;;;;52.70;25.50;;;;;;;3.91;42.28;99587.83;221085;1271;22677;-69
2022/03/24 01:13:51;;;;;;;49.90;26.30;;;;;;;3.95;42.54;99592.19;221295;1270;23802;-69
2022/03/24 01:18:55;;;;;;;65.70;33.30;;;;;;;3.99;42.90;99592.59;220972;1271;24034;-69
2022/03/24 01:23:59;;;;;;;83.90;40.90;;;;;;;3.69;43.89;99582.09;220959;1271;22565;-71
2022/03/24 01:29:04;;;;;;;84.50;42.60;;;;;;;3.28;44.08;99580.67;220762;1271;23401;-68
2022/03/24 01:34:07;;;;;;;78.70;39.20;;;;;;;3.06;44.62;99573.85;220948;1271;23798;-68
2022/03/24 01:39:10;;;;;;;57.20;30.20;;;;;;;2.91;45.46;99575.14;221075;1271;22575;-67
2022/03/24 01:44:16;;;;;;;55.20;29.40;;;;;;;2.78;46.01;99568.10;220937;1270;22645;-68
2022/03/24 01:49:20;;;;;;;59.80;28.00;;;;;;;2.69;46.22;99571.23;221216;1271;25440;-68
2022/03/24 01:54:23;;;;;;;52.70;26.70;;;;;;;2.62;46.32;99572.23;221086;1271;24308;-68
2022/03/24 01:59:28;;;;;;;58.30;28.40;;;;;;;2.63;46.68;99573.89;220871;1271;24743;-68
2022/03/24 02:04:35;;;;;;;86.10;42.10;;;;;;;2.63;47.54;99571.97;221085;1270;22578;-68
2022/03/24 02:09:38;;;;;;;73.00;33.90;;;;;;;2.41;47.81;99568.35;221167;1271;25305;-68
2022/03/24 02:14:41;;;;;;;68.80;34.00;;;;;;;2.29;47.74;99572.91;221181;1271;23473;-72
2022/03/24 02:19:45;;;;;;;67.50;34.20;;;;;;;2.18;48.05;99569.08;221385;1271;23802;-69
2022/03/24 02:24:48;;;;;;;73.20;34.60;;;;;;;2.10;48.18;99574.95;221180;1271;24303;-68
2022/03/24 02:29:51;;;;;;;70.40;31.40;;;;;;;2.06;48.06;99576.80;221143;1270;22687;-68
2022/03/24 02:34:54;;;;;;;68.60;33.60;;;;;;;2.08;48.64;99580.08;220828;1271;24288;-68
2022/03/24 02:39:58;;;;;;;53.60;26.90;;;;;;;2.06;48.52;99588.55;221034;1271;22629;-68
2022/03/24 02:45:08;;;;;;;42.30;21.20;;;;;;;2.07;48.42;99590.91;220979;1270;22476;-68
2022/03/24 02:50:10;;;;;;;37.40;19.10;;;;;;;2.16;48.36;99589.15;220949;1271;22633;-69
2022/03/24 02:55:12;;;;;;;37.20;19.60;;;;;;;2.25;48.39;99592.34;221558;1270;23881;-68
2022/03/24 03:00:15;;;;;;;40.50;19.90;;;;;;;2.34;48.35;99600.59;221165;1269;22623;-68
2022/03/24 03:05:18;;;;;;;37.00;20.50;;;;;;;2.40;48.33;99597.50;221162;1269;22571;-68
2022/03/24 03:10:20;;;;;;;37.50;19.40;;;;;;;2.41;48.03;99604.16;221194;1270;22659;-68
2022/03/24 03:15:26;;;;;;;38.20;19.60;;;;;;;2.37;48.69;99609.14;221111;1270;24012;-68
2022/03/24 03:20:29;;;;;;;41.50;20.60;;;;;;;2.32;48.64;99611.90;221021;1270;24347;-69
2022/03/24 03:25:32;;;;;;;46.60;22.10;;;;;;;2.26;48.82;99610.32;221123;1270;23442;-68
2022/03/24 03:30:34;;;;;;;43.30;20.80;;;;;;;2.19;48.77;99609.22;221128;1270;24252;-68
2022/03/24 03:35:37;;;;;;;39.50;20.70;;;;;;;2.15;48.85;99615.02;221170;1270;24608;-69
2022/03/24 03:40:39;;;;;;;43.50;21.10;;;;;;;2.14;49.27;99619.79;221315;1270;22560;-68
2022/03/24 03:45:44;;;;;;;39.90;20.50;;;;;;;2.12;49.33;99625.16;221134;1270;23541;-68
2022/03/24 03:50:47;;;;;;;37.20;20.70;;;;;;;2.11;49.65;99627.40;221237;1270;24332;-69
2022/03/24 03:55:49;;;;;;;41.50;22.30;;;;;;;2.09;49.51;99632.98;220858;1269;22610;-69
2022/03/24 04:00:58;;;;;;;60.00;27.10;;;;;;;2.11;49.27;99630.95;220910;1271;23962;-69
2022/03/24 04:06:09;;;;;;;110.70;44.40;;;;;;;2.16;49.34;99633.48;220967;1270;23848;-68
2022/03/24 04:11:12;;;;;;;100.80;40.70;;;;;;;2.25;49.17;99638.59;220922;1270;22988;-68
2022/03/24 04:16:27;;;;;;;85.30;37.40;;;;;;;2.35;49.14;99636.20;220955;1270;23080;-69
2022/03/24 04:21:50;;;;;;;73.10;34.30;;;;;;;2.42;48.84;99635.60;221159;1270;23826;-69
2022/03/24 04:26:52;;;;;;;74.20;33.80;;;;;;;2.45;48.70;99638.71;220948;1270;24367;-69
2022/03/24 04:31:55;;;;;;;59.20;28.80;;;;;;;2.46;48.93;99643.91;221135;1270;23808;-68
2022/03/24 04:36:58;;;;;;;50.70;25.70;;;;;;;2.38;48.94;99645.15;221108;1270;23094;-68
2022/03/24 04:42:00;;;;;;;52.70;26.40;;;;;;;2.28;48.82;99642.20;221094;1270;24353;-69
2022/03/24 04:47:03;;;;;;;45.60;22.40;;;;;;;2.18;49.25;99643.88;221082;1269;24201;-69
2022/03/24 04:52:06;;;;;;;48.00;24.80;;;;;;;2.10;49.43;99643.59;221067;1270;22687;-70
2022/03/24 04:57:08;;;;;;;46.30;24.30;;;;;;;2.04;49.31;99647.04;221075;1270;22718;-69
2022/03/24 05:02:15;;;;;;;47.90;24.30;;;;;;;2.01;49.21;99643.15;221063;1270;24205;-69
2022/03/24 05:07:18;;;;;;;45.90;24.80;;;;;;;2.04;49.54;99646.27;221160;1270;25009;-68
2022/03/24 05:12:21;;;;;;;46.50;24.20;;;;;;;2.13;49.45;99655.90;221032;1270;24211;-68
2022/03/24 05:17:23;;;;;;;53.30;25.00;;;;;;;2.26;49.89;99652.17;221130;1269;25214;-68
2022/03/24 05:22:29;;;;;;;49.40;25.20;;;;;;;2.44;49.82;99654.87;221058;1269;25251;-69
2022/03/24 05:27:33;;;;;;;49.80;26.40;;;;;;;2.67;49.56;99654.20;221119;1270;25249;-69
2022/03/24 05:32:41;;;;;;;58.30;28.80;;;;;;;2.88;49.54;99654.77;221139;1270;22548;-69
2022/03/24 05:37:44;;;;;;;55.50;28.70;;;;;;;3.08;49.18;99655.48;221345;1269;22664;-69
2022/03/24 05:42:48;;;;;;;56.90;27.90;;;;;;;3.25;49.26;99661.81;221163;1270;22821;-70
2022/03/24 05:47:50;;;;;;;53.30;29.10;;;;;;;3.42;49.02;99664.77;221083;1270;22571;-68
2022/03/24 05:53:02;;;;;;;60.00;31.70;;;;;;;3.66;49.17;99671.32;221094;1270;22572;-68
2022/03/24 05:58:05;;;;;;;57.10;29.30;;;;;;;3.93;48.94;99677.00;221113;1268;22594;-70
2022/03/24 06:03:15;;;;;;;58.10;30.40;;;;;;;4.10;48.82;99676.85;220969;1270;25293;-70
2022/03/24 06:08:19;;;;;;;56.10;28.60;;;;;;;4.30;48.61;99683.80;221144;1270;22558;-70
2022/03/24 06:13:25;;;;;;;70.80;31.80;;;;;;;4.53;48.42;99681.36;221165;1269;22640;-70
2022/03/24 06:18:42;;;;;;;56.60;28.90;;;;;;;4.73;48.26;99681.33;221407;1270;22523;-69
2022/03/24 06:23:44;;;;;;;60.90;30.10;;;;;;;4.89;47.99;99679.98;221032;1269;22473;-69
2022/03/24 06:28:52;;;;;;;60.20;29.70;;;;;;;5.09;48.04;99682.77;221016;1270;25376;-70
2022/03/24 06:33:55;;;;;;;56.60;29.30;;;;;;;5.31;47.85;99689.14;221148;1270;22680;-70
2022/03/24 06:38:57;;;;;;;52.20;26.70;;;;;;;5.53;48.03;99690.11;221254;1270;23674;-69
2022/03/24 06:43:59;;;;;;;45.00;26.60;;;;;;;5.78;47.16;99694.94;221169;1270;22577;-68
2022/03/24 06:49:05;;;;;;;51.40;28.20;;;;;;;6.01;47.00;99698.64;221385;1270;22672;-67
2022/03/24 06:54:07;;;;;;;55.00;27.90;;;;;;;6.22;46.76;99701.81;221469;1270;22571;-69
2022/03/24 06:59:10;;;;;;;51.40;29.70;;;;;;;6.40;46.72;99705.71;221208;1270;25399;-69
2022/03/24 07:04:13;;;;;;;54.70;29.00;;;;;;;6.58;46.09;99711.86;221450;1268;22682;-69
2022/03/24 07:09:15;;;;;;;49.50;28.00;;;;;;;6.78;46.14;99716.83;221216;1271;22542;-68
2022/03/24 07:14:20;;;;;;;50.60;26.80;;;;;;;6.95;45.96;99721.60;221471;1268;22557;-69
2022/03/24 07:19:22;;;;;;;53.00;28.60;;;;;;;7.14;45.53;99726.05;221411;1270;22523;-68
2022/03/24 07:24:24;;;;;;;50.70;29.00;;;;;;;7.32;45.26;99726.98;221072;1269;364038;-67
2022/03/24 07:29:27;;;;;;;49.70;27.30;;;;;;;7.55;45.24;99726.62;221229;1269;22729;-68
2022/03/24 07:34:42;;;;;;;45.70;27.70;;;;;;;7.82;45.09;99726.08;221407;1270;24330;-68
2022/03/24 07:40:00;;;;;;;47.60;27.20;;;;;;;8.16;44.36;99723.95;221317;1269;23571;-68
2022/03/24 07:45:23;;;;;;;50.30;28.40;;;;;;;8.31;43.43;99725.88;221273;1270;25376;-70
2022/03/24 07:50:26;;;;;;;52.30;27.80;;;;;;;8.41;43.47;99729.73;221911;1269;23982;-68
2022/03/24 07:55:42;;;;;;;46.50;27.50;;;;;;;8.61;43.46;99728.58;221122;1270;25335;-69
2022/03/24 08:00:46;;;;;;;46.90;27.00;;;;;;;8.80;42.78;99722.94;221476;1269;24202;-68
2022/03/24 08:05:57;;;;;;;42.00;26.70;;;;;;;8.98;42.29;99720.32;221353;1270;22653;-71
2022/03/24 08:11:03;;;;;;;45.20;26.50;;;;;;;9.17;41.77;99722.84;221408;1270;22693;-70
2022/03/24 08:16:06;;;;;;;46.90;26.60;;;;;;;9.39;41.53;99720.85;221358;1270;22548;-69
2022/03/24 08:21:08;;;;;;;48.90;28.50;;;;;;;9.61;41.34;99727.46;221554;1270;25362;-69
2022/03/24 08:26:16;;;;;;;47.30;27.20;;;;;;;9.84;41.06;99734.23;221199;1270;25330;-69
2022/03/24 08:31:18;;;;;;;48.10;27.90;;;;;;;10.06;40.81;99740.17;221364;1270;22609;-69
2022/03/24 08:36:21;;;;;;;45.30;27.10;;;;;;;10.20;40.26;99738.41;221233;1270;25323;-68
2022/03/24 08:41:23;;;;;;;49.10;29.10;;;;;;;10.38;40.04;99737.80;221119;1270;25083;-69
2022/03/24 08:46:26;;;;;;;44.00;28.30;;;;;;;10.59;40.08;99736.57;223006;1269;25213;-69
2022/03/24 08:51:29;;;;;;;46.60;28.30;;;;;;;10.82;39.88;99733.77;221420;1268;24201;-69
2022/03/24 08:56:31;;;;;;;49.50;29.00;;;;;;;11.02;39.27;99734.17;221188;1270;22887;-68
2022/03/24 09:01:35;;;;;;;48.60;29.30;;;;;;;11.15;39.09;99733.20;221517;1269;22581;-71
2022/03/24 09:06:38;;;;;;;48.60;29.00;;;;;;;11.27;38.86;99730.63;221042;1270;22589;-68
2022/03/24 09:11:43;;;;;;;46.80;28.20;;;;;;;11.49;38.85;99738.66;221350;1270;24395;-68
2022/03/24 09:16:59;;;;;;;43.80;26.90;;;;;;;11.74;38.57;99740.05;221466;1269;23809;-69
2022/03/24 09:22:21;;;;;;;40.20;25.90;;;;;;;12.03;37.94;99746.28;221488;1270;24249;-69
2022/03/24 09:27:24;;;;;;;42.10;24.80;;;;;;;12.20;37.18;99748.27;221484;1270;23681;-69
2022/03/24 09:32:29;;;;;;;41.50;24.80;;;;;;;12.35;37.16;99750.72;221317;1270;22970;-69
2022/03/24 09:37:50;;;;;;;39.20;24.70;;;;;;;12.59;37.09;99749.36;223407;1270;22560;-69
2022/03/24 09:43:08;;;;;;;37.70;23.40;;;;;;;12.80;36.44;99747.63;221275;1270;22677;-68
2022/03/24 09:48:11;;;;;;;33.50;23.30;;;;;;;12.94;36.25;99746.61;221494;1270;25387;-68
2022/03/24 09:53:14;;;;;;;37.70;24.30;;;;;;;13.11;35.85;99748.69;221413;1268;24509;-68
2022/03/24 09:58:16;;;;;;;40.40;25.30;;;;;;;13.25;35.34;99748.41;220141;1274;23100;-68
2022/03/24 10:03:32;;;;;;;37.50;23.10;;;;;;;13.35;35.30;99747.23;221732;1274;22658;-69
2022/03/24 10:08:39;;;;;;;37.70;24.10;;;;;;;13.43;35.39;99747.98;220524;1274;24355;-69
2022/03/24 10:13:55;;;;;;;43.50;25.80;;;;;;;13.47;35.14;99747.71;220645;1274;25408;-69
2022/03/24 10:19:09;;;;;;;37.70;24.90;;;;;;;13.48;35.07;99746.63;220543;1274;22693;-68
2022/03/24 10:24:12;;;;;;;37.50;23.60;;;;;;;13.50;35.07;99736.61;220701;1273;24325;-68
2022/03/24 10:29:18;;;;;;;32.80;20.60;;;;;;;13.64;35.13;99743.41;221358;1274;25912;-68
2022/03/24 10:34:36;;;;;;;30.00;18.30;;;;;;;13.76;34.50;99743.23;220764;1274;22826;-67
2022/03/24 10:39:39;;;;;;;23.40;15.30;;;;;;;13.84;33.53;99740.08;221061;1274;22570;-66
2022/03/24 10:45:07;;;;;;;22.70;15.60;;;;;;;13.91;33.01;99732.46;221968;1274;22532;-66
2022/03/24 10:50:25;;;;;;;20.40;14.00;;;;;;;14.07;32.67;99728.67;220589;1274;23099;-68
2022/03/24 10:55:57;;;;;;;18.40;12.50;;;;;;;14.15;32.10;99726.36;220314;1274;22715;-68
2022/03/24 11:01:14;;;;;;;20.90;13.20;;;;;;;14.28;31.63;99727.55;220533;1273;22473;-66
2022/03/24 11:06:23;;;;;;;23.60;13.10;;;;;;;14.34;30.99;99728.61;220859;1274;23388;-67
2022/03/24 11:11:29;;;;;;;19.30;12.30;;;;;;;14.37;31.02;99720.95;220608;1274;24246;-67
2022/03/24 11:16:35;;;;;;;22.30;13.20;;;;;;;14.49;30.89;99715.79;220149;1274;22551;-68
2022/03/24 11:21:43;;;;;;;20.30;13.70;;;;;;;14.58;30.32;99713.56;220605;1274;24861;-68
2022/03/24 11:26:49;;;;;;;16.50;12.00;;;;;;;14.60;30.36;99707.77;220581;1274;24288;-69
2022/03/24 11:31:54;;;;;;;24.40;15.10;;;;;;;14.66;30.21;99697.77;220413;1274;22542;-68
2022/03/24 11:36:56;;;;;;;18.50;12.80;;;;;;;14.78;30.58;99698.18;220409;1274;22568;-68
2022/03/24 11:42:02;;;;;;;21.10;13.40;;;;;;;14.93;30.44;99701.73;220395;1274;24268;-67
2022/03/24 11:47:15;;;;;;;20.30;12.70;;;;;;;14.98;30.19;99700.95;221069;1274;22583;-68
2022/03/24 11:52:38;;;;;;;19.00;12.90;;;;;;;15.00;30.07;99703.84;220518;1273;22688;-68
2022/03/24 11:57:58;;;;;;;21.50;13.70;;;;;;;15.09;30.01;99703.30;220622;1273;23086;-67
2022/03/24 12:03:43;;;;;;;21.80;13.80;;;;;;;15.19;29.87;99701.02;220314;1274;23817;-68
2022/03/24 12:09:02;;;;;;;16.70;11.40;;;;;;;15.18;29.23;99697.73;220647;1273;22467;-67
2022/03/24 12:14:07;;;;;;;17.50;10.80;;;;;;;15.21;29.05;99691.67;220593;1274;22530;-68
2022/03/24 12:19:46;;;;;;;16.40;12.30;;;;;;;15.22;28.79;99688.58;220697;1273;22561;-67
2022/03/24 12:24:49;;;;;;;15.30;10.00;;;;;;;15.24;28.72;99685.45;220222;1273;25864;-68
2022/03/24 12:30:18;;;;;;;15.40;10.50;;;;;;;15.33;28.42;99681.25;221358;1273;22604;-68
2022/03/24 12:35:53;;;;;;;15.80;10.80;;;;;;;15.42;27.92;99678.98;220410;1273;23981;-68
2022/03/24 12:41:08;;;;;;;15.50;9.90;;;;;;;15.40;27.45;99678.52;220616;1274;24145;-67
2022/03/24 12:46:29;;;;;;;13.00;9.60;;;;;;;15.44;27.53;99671.48;220888;1274;22536;-68
2022/03/24 12:51:33;;;;;;;15.60;9.30;;;;;;;15.47;26.63;99672.84;221191;1273;22638;-67
2022/03/24 12:56:42;;;;;;;14.80;9.60;;;;;;;15.43;26.35;99671.63;220513;1274;22695;-69
2022/03/24 13:01:50;;;;;;;13.50;8.70;;;;;;;15.45;26.15;99667.74;220660;1273;22565;-68
2022/03/24 13:06:53;;;;;;;13.90;8.30;;;;;;;15.48;25.75;99663.48;220900;1274;22542;-68
2022/03/24 13:11:56;;;;;;;15.50;8.70;;;;;;;15.44;25.44;99657.66;220444;1275;22483;-68
2022/03/24 13:17:02;;;;;;;12.40;9.20;;;;;;;15.49;25.35;99650.33;220710;1273;23684;-69
2022/03/24 13:22:23;;;;;;;13.20;8.00;;;;;;;15.54;25.02;99643.17;220722;1274;22571;-68
2022/03/24 13:27:27;;;;;;;12.10;7.80;;;;;;;15.60;24.95;99643.93;220910;1273;24777;-68
2022/03/24 13:32:29;;;;;;;12.20;7.90;;;;;;;15.62;24.70;99636.86;220431;1274;24027;-68
2022/03/24 13:37:53;;;;;;;12.00;8.10;;;;;;;15.65;24.63;99633.98;220564;1274;23823;-68
2022/03/24 13:42:58;;;;;;;11.60;7.70;;;;;;;15.70;24.40;99630.48;220279;1274;23589;-68
2022/03/24 13:48:07;;;;;;;12.70;8.00;;;;;;;15.66;24.01;99628.94;220390;1274;22631;-67
2022/03/24 13:53:18;;;;;;;11.20;7.50;;;;;;;15.56;23.97;99625.95;220600;1274;22640;-68
2022/03/24 13:58:20;;;;;;;10.40;7.20;;;;;;;15.55;24.03;99623.11;220723;1273;22613;-68
2022/03/24 14:03:27;;;;;;;10.40;7.30;;;;;;;15.55;23.63;99619.10;220482;1273;25329;-68
2022/03/24 14:08:51;;;;;;;10.30;7.30;;;;;;;15.49;23.70;99611.55;220557;1274;22595;-70
2022/03/24 14:13:56;;;;;;;9.50;5.80;;;;;;;15.48;23.92;99610.54;220226;1274;25362;-69
2022/03/24 14:19:18;;;;;;;8.20;6.30;;;;;;;15.52;23.94;99601.23;221030;1273;22577;-69
2022/03/24 14:24:37;;;;;;;9.30;7.00;;;;;;;15.52;23.80;99601.46;220528;1274;24383;-69
2022/03/24 14:29:58;;;;;;;;;;;;;;;15.47;23.69;99594.86;220599;1274;23897;-70
2022/03/24 14:35:18;;;;;;;9.80;7.40;;;;;;;15.41;23.83;99592.39;222689;1273;23440;-69
2022/03/24 14:40:32;;;;;;;11.60;6.90;;;;;;;15.35;23.97;99592.23;220537;1275;22480;-69
2022/03/24 14:45:38;;;;;;;11.00;7.50;;;;;;;15.29;23.89;99585.48;220615;1274;24208;-69
2022/03/24 14:50:42;;;;;;;10.30;7.10;;;;;;;15.24;23.94;99578.25;220602;1274;24240;-68
2022/03/24 14:55:45;;;;;;;10.20;7.00;;;;;;;15.22;24.01;99574.29;220549;1274;24199;-67
2022/03/24 15:00:48;;;;;;;10.80;6.80;;;;;;;15.18;24.02;99576.24;220826;1274;22635;-67
2022/03/24 15:05:50;;;;;;;9.50;6.60;;;;;;;15.12;24.12;99576.04;220808;1273;22489;-69
2022/03/24 15:10:55;;;;;;;7.20;6.00;;;;;;;15.05;24.12;99575.26;220376;1274;22583;-69
2022/03/24 15:16:04;;;;;;;11.00;6.50;;;;;;;14.97;24.13;99572.55;220582;1273;22596;-68
2022/03/24 15:21:07;;;;;;;7.60;5.30;;;;;;;14.89;24.37;99565.13;220596;1274;22691;-68
2022/03/24 15:26:10;;;;;;;10.30;5.90;;;;;;;14.84;24.47;99568.58;220424;1274;22532;-69
2022/03/24 15:31:12;;;;;;;7.60;4.80;;;;;;;14.76;24.78;99567.58;220359;1274;22545;-68
2022/03/24 15:36:15;;;;;;;7.20;4.80;;;;;;;14.69;24.91;99563.59;220708;1273;22648;-69
2022/03/24 15:41:17;;;;;;;7.30;4.40;;;;;;;14.64;25.17;99561.25;219718;1276;22742;-70
2022/03/24 15:46:19;;;;;;;8.70;5.10;;;;;;;14.57;25.38;99565.71;221318;1274;25698;-68
2022/03/24 15:51:22;;;;;;;8.00;5.70;;;;;;;14.48;25.62;99568.55;220530;1274;24353;-69
2022/03/24 15:56:24;;;;;;;9.00;4.50;;;;;;;14.35;25.92;99567.29;220568;1273;22724;-68
2022/03/24 16:01:31;;;;;;;9.80;4.90;;;;;;;14.20;26.14;99572.39;220715;1273;22708;-69
2022/03/24 16:06:33;;;;;;;10.20;6.90;;;;;;;13.99;26.30;99570.04;220756;1273;22532;-68
2022/03/24 16:11:36;;;;;;;6.40;4.00;;;;;;;13.81;26.63;99569.11;220303;1273;22478;-68
2022/03/24 16:16:45;;;;;;;6.30;3.90;;;;;;;13.64;26.77;99568.04;219669;1276;22576;-69
2022/03/24 16:21:48;;;;;;;7.40;4.50;;;;;;;13.48;27.02;99569.96;220347;1274;22464;-69
2022/03/24 16:26:51;;;;;;;7.40;4.60;;;;;;;13.31;27.48;99573.36;220547;1273;22571;-67
2022/03/24 16:31:58;;;;;;;8.70;3.90;;;;;;;13.12;27.77;99571.42;220580;1273;22989;-68
2022/03/24 16:37:09;;;;;;;7.10;3.70;;;;;;;12.92;28.00;99573.92;220381;1273;22583;-68
2022/03/24 16:42:17;;;;;;;7.20;3.60;;;;;;;12.72;28.22;99578.73;220340;1273;22587;-68
2022/03/24 16:47:19;;;;;;;6.30;3.70;;;;;;;12.53;28.62;99582.61;220234;1275;22577;-68
2022/03/24 16:52:43;;;;;;;5.50;3.70;;;;;;;12.30;28.94;99586.44;220364;1274;22562;-69
2022/03/24 16:57:46;;;;;;;4.70;2.80;;;;;;;12.08;29.16;99590.35;220682;1273;22993;-67
2022/03/24 17:02:48;;;;;;;8.00;3.60;;;;;;;11.86;29.53;99595.77;220498;1274;22825;-68
2022/03/24 17:07:51;;;;;;;7.80;3.70;;;;;;;11.64;30.01;99596.23;220245;1274;22545;-68
2022/03/24 17:13:00;;;;;;;10.10;4.50;;;;;;;11.44;29.91;99599.84;220713;1273;22595;-68
2022/03/24 17:18:03;;;;;;;7.00;4.90;;;;;;;11.27;30.48;99604.99;220467;1273;22557;-68
2022/03/24 17:23:06;;;;;;;12.60;6.80;;;;;;;11.11;30.65;99608.14;220924;1273;23843;-68
2022/03/24 17:28:09;;;;;;;11.30;7.10;;;;;;;10.98;31.12;99610.57;220199;1274;23867;-68
2022/03/24 17:33:11;;;;;;;14.60;6.10;;;;;;;10.86;31.48;99609.35;220417;1274;22686;-69
2022/03/24 17:38:13;;;;;;;9.80;5.00;;;;;;;10.76;31.93;99618.30;220137;1275;23394;-69
2022/03/24 17:43:16;;;;;;;9.60;4.50;;;;;;;10.68;31.99;99617.19;221570;1276;23230;-69
2022/03/24 17:48:18;;;;;;;9.60;5.10;;;;;;;10.59;32.22;99617.45;220257;1273;22474;-73
2022/03/24 17:53:21;;;;;;;9.30;5.30;;;;;;;10.51;32.31;99618.36;221805;1274;22822;-69
2022/03/24 17:58:23;;;;;;;12.20;6.30;;;;;;;10.43;32.49;99621.99;220641;1273;24129;-68
2022/03/24 18:03:26;;;;;;;16.30;8.50;;;;;;;10.35;32.77;99628.34;220814;1273;24315;-69
2022/03/24 18:08:28;;;;;;;17.40;9.90;;;;;;;10.25;33.02;99628.52;220215;1275;23844;-69
2022/03/24 18:13:31;;;;;;;16.90;11.00;;;;;;;10.15;33.15;99637.23;220275;1275;25383;-68
2022/03/24 18:18:33;;;;;;;23.30;13.60;;;;;;;10.04;33.35;99640.79;220506;1274;22830;-69
2022/03/24 18:23:35;;;;;;;21.50;12.30;;;;;;;9.96;33.56;99638.52;220476;1274;25197;-69
2022/03/24 18:28:41;;;;;;;15.60;9.60;;;;;;;9.87;33.82;99643.30;220264;1275;22558;-68
2022/03/24 18:33:43;;;;;;;15.40;9.10;;;;;;;9.74;33.95;99641.23;220141;1274;24404;-70
2022/03/24 18:38:45;;;;;;;12.60;6.80;;;;;;;9.60;34.31;99649.83;220175;1274;22599;-69
2022/03/24 18:43:50;;;;;;;14.80;6.70;;;;;;;9.43;34.68;99652.57;220401;1275;22599;-68
2022/03/24 18:48:55;;;;;;;14.00;6.40;;;;;;;9.26;34.97;99656.59;220413;1273;22823;-69
2022/03/24 18:54:00;;;;;;;14.00;7.90;;;;;;;9.10;35.30;99658.20;220311;1275;23392;-69
2022/03/24 18:59:12;;;;;;;19.80;8.40;;;;;;;8.99;35.69;99659.51;220387;1274;22558;-69
2022/03/24 19:04:26;;;;;;;19.70;8.70;;;;;;;8.90;36.00;99663.61;220682;1273;22543;-70
2022/03/24 19:09:47;;;;;;;16.30;8.30;;;;;;;8.82;36.20;99662.27;220155;1275;22552;-68
2022/03/24 19:14:49;;;;;;;16.30;8.00;;;;;;;8.78;36.36;99664.80;220540;1273;23133;-69
2022/03/24 19:19:52;;;;;;;12.80;7.80;;;;;;;8.76;36.35;99671.18;220583;1273;22589;-69
2022/03/24 19:25:09;;;;;;;13.90;7.80;;;;;;;8.74;36.66;99667.91;219537;1274;1389438;-68
2022/03/24 19:30:31;;;;;;;18.60;8.30;;;;;;;8.76;36.69;99668.55;220383;1274;22641;-68
2022/03/24 19:35:39;;;;;;;14.20;8.40;;;;;;;8.76;36.78;99665.19;220208;1275;22567;-71
2022/03/24 19:40:42;;;;;;;17.90;9.60;;;;;;;8.75;36.93;99668.13;221937;1273;25385;-69
2022/03/24 19:45:44;;;;;;;25.50;12.10;;;;;;;8.70;36.84;99666.27;220223;1275;22616;-69
2022/03/24 19:50:47;;;;;;;24.50;12.00;;;;;;;8.66;37.28;99667.05;220418;1273;22594;-70
2022/03/24 19:55:49;;;;;;;20.60;10.30;;;;;;;8.63;37.42;99670.06;220458;1273;22538;-67
2022/03/24 20:00:51;;;;;;;17.60;9.50;;;;;;;8.62;37.41;99667.65;222094;1274;23667;-68
2022/03/24 20:05:54;;;;;;;17.20;9.40;;;;;;;8.60;37.55;99670.55;220629;1273;25080;-69
2022/03/24 20:10:56;;;;;;;20.40;10.60;;;;;;;8.58;37.56;99674.00;220528;1274;22826;-69
2022/03/24 20:15:59;;;;;;;21.80;9.50;;;;;;;8.57;37.84;99671.86;220034;1274;24893;-70
2022/03/24 20:21:02;;;;;;;17.70;9.30;;;;;;;8.55;38.04;99675.64;220546;1275;23087;-68
2022/03/24 20:26:05;;;;;;;20.40;10.00;;;;;;;8.53;38.30;99681.08;220444;1274;24334;-68
2022/03/24 20:31:13;;;;;;;20.90;11.20;;;;;;;8.52;38.59;99679.61;220454;1274;25397;-68
2022/03/24 20:36:23;;;;;;;23.70;11.60;;;;;;;8.45;38.72;99677.71;220258;1273;22534;-68
2022/03/24 20:41:33;;;;;;;21.90;13.10;;;;;;;8.34;38.79;99682.93;220244;1274;22539;-69
2022/03/24 20:46:36;;;;;;;23.80;12.60;;;;;;;8.25;38.92;99687.48;220445;1273;22865;-68
2022/03/24 20:51:38;;;;;;;21.00;12.10;;;;;;;8.15;38.77;99685.93;220298;1274;24237;-69
2022/03/24 20:56:42;;;;;;;21.30;11.40;;;;;;;8.07;39.23;99687.49;220653;1274;22540;-68
2022/03/24 21:01:55;;;;;;;21.70;12.70;;;;;;;7.99;39.36;99686.87;220580;1274;24039;-68
2022/03/24 21:07:04;;;;;;;23.80;13.10;;;;;;;7.90;39.89;99694.02;220527;1274;22683;-69
2022/03/24 21:12:07;;;;;;;24.30;11.40;;;;;;;7.81;39.76;99686.65;220519;1274;22569;-69
2022/03/24 21:17:17;;;;;;;25.30;13.30;;;;;;;7.72;40.15;99690.59;220915;1273;22820;-68
2022/03/24 21:22:19;;;;;;;28.10;13.40;;;;;;;7.64;40.45;99686.42;220586;1274;22563;-69
2022/03/24 21:27:22;;;;;;;24.50;13.30;;;;;;;7.59;40.69;99687.27;220342;1274;22841;-68
2022/03/24 21:32:25;;;;;;;24.80;13.30;;;;;;;7.54;40.92;99691.95;220315;1274;23385;-69
2022/03/24 21:37:27;;;;;;;24.70;13.80;;;;;;;7.46;40.69;99695.30;220595;1274;24918;-68
2022/03/24 21:42:30;;;;;;;30.10;14.50;;;;;;;7.35;40.90;99692.27;220123;1274;25389;-69
2022/03/24 21:47:32;;;;;;;22.50;13.80;;;;;;;7.23;41.04;99691.23;220482;1274;24192;-69
2022/03/24 21:52:38;;;;;;;24.90;13.70;;;;;;;7.09;40.98;99692.34;220192;1274;24240;-68
2022/03/24 21:57:45;;;;;;;29.90;16.00;;;;;;;6.88;41.37;99695.20;220630;1273;25431;-68
2022/03/24 22:40:40;;;;;;;40.80;20.60;;;;;;;5.03;44.81;99692.84;220000;1276;22491;-68
2022/03/24 22:45:42;;;;;;;54.90;25.70;;;;;;;4.89;44.93;99692.67;220328;1274;24291;-68
2022/03/24 22:50:44;;;;;;;60.00;27.60;;;;;;;4.79;45.05;99693.98;220546;1274;24261;-69
2022/03/24 22:55:47;;;;;;;53.50;26.50;;;;;;;4.71;45.24;99695.04;220215;1276;22843;-69
2022/03/24 23:01:07;;;;;;;59.40;25.30;;;;;;;4.63;45.42;99691.06;220282;1274;22811;-68
2022/03/24 23:06:30;;;;;;;52.90;25.30;;;;;;;4.52;45.97;99691.06;220457;1274;24421;-68
2022/03/24 23:11:32;;;;;;;52.00;25.50;;;;;;;4.40;46.30;99688.77;220382;1276;22571;-69
2022/03/24 23:16:38;;;;;;;50.90;25.80;;;;;;;4.27;46.46;99690.61;220534;1273;24216;-69
2022/03/24 23:21:43;;;;;;;51.70;25.80;;;;;;;4.14;46.94;99688.63;220343;1274;22554;-68
2022/03/24 23:26:46;;;;;;;53.20;25.00;;;;;;;4.01;47.49;99693.23;220593;1273;22547;-68
2022/03/24 23:32:02;;;;;;;47.90;23.70;;;;;;;3.86;47.84;99696.04;220556;1273;22476;-69
2022/03/24 23:37:30;;;;;;;49.80;23.60;;;;;;;3.72;48.26;99696.94;220121;1276;24195;-69
2022/03/24 23:42:33;;;;;;;46.00;23.60;;;;;;;3.61;48.48;99693.21;220367;1273;22948;-68
2022/03/24 23:47:36;;;;;;;46.20;22.50;;;;;;;3.50;48.73;99689.98;220449;1273;24235;-67
2022/03/24 23:52:38;;;;;;;51.50;25.20;;;;;;;3.39;48.76;99696.08;220447;1273;23696;-69
2022/03/24 23:57:42;;;;;;;54.30;25.80;;;;;;;3.29;49.29;99698.24;220330;1274;25445;-68
